Latest Weather Observations for Ulladulla

IDN60901

Issued at 8:05 pm EST Wednesday 23 July 2014 (issued every 10 minutes, with the page automatically refreshed every 10 minutes)

About weather observations | Map of Canberra area stations | Latest observations for Canberra area | Other Formats
Station Details ID: 069138 Name: ULLADULLA AWS Lat: -35.36 Lon: 150.48 Height: 35.7 m
Data from the previous 72 hours. | See also: Recent months at Ulladulla
Date/Time
EST
Tmp

°C
App
Tmp
°C
Dew
Point
°C
Rel
Hum
%
Delta-T

°C
Wind Press
QNH
hPa
Press
MSL
hPa
Rain
since
9 am
mm
Dir
 
Spd
km/h
Gust
km/h
Spd
kts
Gust
kts
23/08:00pm 11.5 10.1 8.7 83 1.4 NNW 6 9 3 5 1022.6 1022.7 0.0
23/07:30pm 12.0 10.6 8.7 80 1.6 N 6 7 3 4 1022.5 - 0.0
23/07:00pm 13.0 12.1 9.3 78 1.9 N 4 7 2 4 1022.3 1022.4 0.0
23/06:30pm 14.2 12.4 9.4 73 2.5 N 9 17 5 9 1022.2 - 0.0
23/06:00pm 14.4 12.3 9.6 73 2.5 NE 11 17 6 9 1022.1 1022.2 0.0
23/05:30pm 14.3 12.5 9.5 73 2.5 NNE 9 17 5 9 1022.0 - 0.0
23/05:00pm 14.0 12.8 9.6 75 2.3 NE 6 11 3 6 1021.8 1021.9 0.0
23/04:30pm 14.3 13.1 9.7 74 2.4 NE 6 11 3 6 1021.7 - 0.0
23/04:00pm 14.6 13.4 9.4 71 2.7 ENE 6 9 3 5 1021.5 1021.6 0.0
23/03:30pm 15.4 14.2 9.7 69 3.0 ESE 6 9 3 5 1021.5 - 0.0
23/03:00pm 15.4 14.0 9.7 69 3.0 E 7 11 4 6 1021.6 1021.7 0.0
23/02:30pm 15.6 14.1 9.1 65 3.3 ESE 7 11 4 6 1021.5 - 0.0
23/02:00pm 15.5 13.9 8.7 64 3.5 ESE 7 11 4 6 1021.7 1021.8 0.0
23/01:30pm 15.7 14.4 10.0 69 3.0 E 7 11 4 6 1022.0 - 0.0
23/01:00pm 15.1 13.6 9.0 67 3.1 ENE 7 13 4 7 1022.3 1022.4 0.0
23/12:30pm 15.4 13.6 9.5 68 3.1 ENE 9 13 5 7 1022.7 - 0.0
23/12:00pm 15.3 13.9 9.4 68 3.0 NNE 7 13 4 7 1023.5 1023.6 0.0
23/11:30am 15.6 14.4 9.7 68 3.1 NNE 6 9 3 5 1024.1 - 0.0
23/11:00am 14.6 13.7 9.2 70 2.7 S 4 7 2 4 1024.7 1024.8 0.0
23/10:30am 14.8 14.0 9.6 71 2.7 S 4 6 2 3 1025.0 - 0.0
23/10:00am 14.9 14.3 9.1 68 3.0 N 2 4 1 2 1025.3 1025.4 0.0
23/09:30am 14.4 13.3 8.4 67 3.0 W 4 7 2 4 1025.2 - 0.0
23/09:00am 14.0 12.9 8.6 70 2.7 W 4 7 2 4 1025.1 1025.2 0.0
23/08:30am 12.5 11.0 8.6 77 1.9 W 6 7 3 4 1024.9 - 0.0
23/08:00am 10.6 8.8 8.0 84 1.3 W 7 11 4 6 1024.7 1024.8 0.0
23/07:30am 8.7 6.3 6.8 88 0.9 W 9 11 5 6 1024.7 - 0.0
23/07:00am 8.0 5.4 6.1 88 0.9 W 9 11 5 6 1024.4 1024.5 0.0
23/06:30am 8.1 5.9 6.2 88 0.9 WSW 7 9 4 5 1024.0 - 0.0
23/06:00am 8.3 6.1 6.4 88 0.9 WSW 7 9 4 5 1024.0 1024.1 0.0
23/05:30am 8.3 6.1 6.3 87 0.9 W 7 9 4 5 1023.7 - 0.0
23/05:00am 8.4 6.2 6.4 87 0.9 WSW 7 9 4 5 1023.3 1023.4 0.0
23/04:30am 8.2 6.0 6.0 86 1.0 W 7 9 4 5 1023.1 - 0.0
23/04:00am 8.4 6.2 6.0 85 1.1 W 7 9 4 5 1023.1 1023.2 0.0
23/03:30am 9.0 7.0 6.4 84 1.2 W 6 7 3 4 1023.1 - 0.0
23/03:00am 9.1 6.9 6.4 83 1.2 W 7 7 4 4 1023.3 1023.4 0.0
23/02:30am 9.5 7.1 6.8 83 1.3 W 9 11 5 6 1023.6 - 0.0
23/02:00am 9.9 7.9 7.0 82 1.4 W 7 9 4 5 1023.7 1023.8 0.0
23/01:30am 10.4 8.5 7.5 82 1.4 W 7 9 4 5 1023.9 - 0.0
23/01:00am 10.2 8.3 7.6 84 1.2 W 7 11 4 6 1024.1 1024.2 0.0
23/12:30am 10.3 8.4 7.5 83 1.3 W 7 11 4 6 1024.1 - 0.0
23/12:00am 10.5 8.3 7.7 83 1.3 W 9 15 5 8 1024.4 1024.5 0.0
 
Date/Time
EST
Tmp

°C
App
Tmp
°C
Dew
Point
°C
Rel
Hum
%
Delta-T

°C
Wind Press
QNH
hPa
Press
MSL
hPa
Rain
since
9 am
mm
Dir
 
Spd
km/h
Gust
km/h
Spd
kts
Gust
kts
22/11:30pm 10.5 8.3 7.9 84 1.3 WSW 9 13 5 7 1024.4 - 0.0
22/11:00pm 10.7 8.6 8.1 84 1.3 WSW 9 11 5 6 1024.4 1024.5 0.0
22/10:30pm 11.0 8.9 8.4 84 1.3 W 9 13 5 7 1024.6 - 0.0
22/10:00pm 11.2 9.2 8.6 84 1.3 W 9 11 5 6 1024.5 1024.6 0.0
22/09:30pm 10.9 9.1 8.0 82 1.4 WSW 7 9 4 5 1024.4 - 0.0
22/09:00pm 11.1 9.4 8.3 83 1.4 WSW 7 9 4 5 1024.3 1024.4 0.0
22/08:30pm 11.4 9.7 8.3 81 1.5 WSW 7 11 4 6 1024.3 - 0.0
22/08:00pm 11.9 9.9 8.7 81 1.6 SW 9 11 5 6 1024.4 1024.5 0.0
22/07:30pm 11.7 10.3 8.7 82 1.5 SW 6 9 3 5 1024.4 - 0.0
22/07:00pm 12.2 10.6 8.9 80 1.6 WSW 7 9 4 5 1024.3 1024.4 0.0
22/06:30pm 13.3 12.1 9.4 77 2.0 WSW 6 11 3 6 1024.2 - 0.0
22/06:00pm 14.2 12.2 10.2 77 2.1 S 11 15 6 8 1023.9 1024.0 0.0
22/05:30pm 13.8 12.1 9.8 77 2.1 S 9 13 5 7 1023.6 - 0.0
22/05:00pm 13.8 12.0 9.6 76 2.1 S 9 13 5 7 1023.3 1023.4 0.0
22/04:30pm 14.3 13.0 9.9 75 2.3 S 7 15 4 8 1023.2 - 0.0
22/04:00pm 14.4 12.3 9.6 73 2.5 S 11 15 6 8 1022.9 1023.0 0.0
22/03:30pm 14.8 12.7 9.6 71 2.7 SSE 11 15 6 8 1022.7 - 0.0
22/03:00pm 14.8 12.6 9.2 69 2.9 S 11 17 6 9 1022.6 1022.7 0.0
22/02:30pm 15.0 12.8 9.4 69 2.9 S 11 15 6 8 1022.7 - 0.0
22/02:00pm 15.1 12.9 9.2 68 3.0 S 11 17 6 9 1022.7 1022.8 0.0
22/01:30pm 15.3 13.2 9.7 69 2.9 S 11 17 6 9 1022.9 - 0.0
22/01:00pm 15.1 13.4 9.7 70 2.8 S 9 15 5 8 1023.1 1023.2 0.0
22/12:30pm 14.9 12.7 9.3 69 2.9 S 11 15 6 8 1023.3 - 0.0
22/12:00pm 14.9 13.0 9.1 68 3.0 S 9 15 5 8 1024.0 1024.1 0.0
22/11:30am 14.7 13.1 8.6 67 3.1 S 7 11 4 6 1024.5 - 0.0
22/11:00am 14.8 13.3 9.2 69 2.9 S 7 9 4 5 1024.8 1024.9 0.0
22/10:30am 14.6 13.1 9.2 70 2.8 SSW 7 11 4 6 1025.0 - 0.0
22/10:00am 14.7 14.0 8.4 66 3.2 WSW 2 6 1 3 1025.1 1025.2 0.0
22/09:30am 13.9 13.0 9.1 73 2.4 W 4 9 2 5 1025.0 - 0.0
22/09:00am 12.4 11.5 9.4 82 1.5 WNW 4 6 2 3 1024.8 1024.9 0.0
22/08:30am 9.9 8.5 9.0 94 0.4 SW 6 7 3 4 1024.8 - 0.0
22/08:00am 9.3 7.9 8.7 96 0.3 SSW 6 7 3 4 1024.6 1024.7 0.0
22/07:30am 8.2 7.5 7.1 93 0.5 CALM 0 0 0 0 1024.2 - 0.0
22/07:00am 8.2 7.5 7.1 93 0.5 CALM 0 0 0 0 1024.0 1024.1 0.0
22/06:30am 8.0 7.2 6.6 91 0.6 CALM 0 0 0 0 1023.7 - 0.0
22/06:00am 7.5 6.2 5.8 89 0.8 WSW 2 7 1 4 1023.6 1023.7 0.0
22/05:30am 8.3 6.8 6.6 89 0.8 WSW 4 4 2 2 1023.4 - 0.0
22/05:00am 8.4 6.5 6.7 89 0.8 WSW 6 7 3 4 1023.2 1023.3 0.0
22/04:30am 8.5 7.0 6.8 89 0.8 SW 4 6 2 3 1023.3 - 0.0
22/04:00am 8.8 6.9 6.9 88 0.9 SSW 6 7 3 4 1023.2 1023.3 0.0
22/03:30am 9.1 7.7 7.2 88 0.9 SSW 4 6 2 3 1023.3 - 0.0
22/03:00am 9.7 8.1 7.8 88 0.9 SSW 6 7 3 4 1023.3 1023.4 0.0
22/02:30am 9.8 8.1 7.7 87 1.0 S 6 7 3 4 1023.3 - 0.0
22/02:00am 10.4 8.9 8.5 88 0.9 S 6 7 3 4 1023.4 1023.5 0.0
22/01:30am 10.6 8.9 8.5 87 1.0 S 7 9 4 5 1023.6 - 0.0
22/01:00am 10.7 9.4 7.6 81 1.5 WSW 4 6 2 3 1023.8 1023.9 0.0
22/12:30am 11.3 9.7 7.8 79 1.7 W 6 7 3 4 1023.8 - 0.0
22/12:00am 11.0 9.1 7.5 79 1.7 W 7 9 4 5 1024.0 1024.1 0.0
 
Date/Time
EST
Tmp

°C
App
Tmp
°C
Dew
Point
°C
Rel
Hum
%
Delta-T

°C
Wind Press
QNH
hPa
Press
MSL
hPa
Rain
since
9 am
mm
Dir
 
Spd
km/h
Gust
km/h
Spd
kts
Gust
kts
21/11:30pm 11.2 9.3 7.5 78 1.8 W 7 9 4 5 1024.2 - 0.0
21/11:00pm 11.4 9.8 7.9 79 1.7 W 6 9 3 5 1024.3 1024.4 0.0
21/10:30pm 11.3 9.7 8.0 80 1.6 W 6 7 3 4 1024.5 - 0.0
21/10:00pm 11.1 9.3 8.0 81 1.5 W 7 11 4 6 1024.5 1024.6 0.0
21/09:30pm 11.3 9.5 8.0 80 1.6 W 7 9 4 5 1024.5 - 0.0
21/09:00pm 11.6 9.8 8.1 79 1.7 W 7 9 4 5 1024.6 1024.7 0.0
21/08:30pm 11.9 10.3 8.6 80 1.6 WNW 7 9 4 5 1024.5 - 0.0
21/08:00pm 11.8 10.2 8.6 81 1.6 WNW 7 9 4 5 1024.5 1024.6 0.0
21/07:30pm 11.6 10.0 8.6 82 1.5 NW 7 9 4 5 1024.4 - 0.0
21/07:00pm 11.2 9.6 7.9 80 1.6 WNW 6 7 3 4 1024.3 1024.4 0.0
21/06:30pm 11.6 10.3 7.5 76 2.0 NNE 4 6 2 3 1024.1 - 0.0
21/06:00pm 12.4 11.4 7.3 71 2.5 NE 2 4 1 2 1024.0 1024.1 0.0
21/05:30pm 13.1 11.9 8.0 71 2.5 NE 4 7 2 4 1023.7 - 0.0
21/05:00pm 13.3 12.1 8.0 70 2.6 ENE 4 7 2 4 1023.7 1023.8 0.0
21/04:30pm 13.9 13.1 8.1 68 2.9 ENE 2 6 1 3 1023.6 - 0.0
21/04:00pm 14.4 13.0 8.8 69 2.8 E 6 9 3 5 1023.5 1023.6 0.0
21/03:30pm 14.7 13.7 8.9 68 3.0 E 4 7 2 4 1023.6 - 0.0
21/03:00pm 14.9 13.6 9.1 68 3.0 S 6 7 3 4 1023.5 1023.6 0.0
21/02:30pm 15.2 14.2 8.9 66 3.2 S 4 7 2 4 1023.6 - 0.0
21/02:00pm 14.9 13.5 7.2 60 3.8 S 4 6 2 3 1023.7 1023.8 0.0
21/01:30pm 14.6 13.4 8.1 65 3.3 S 4 7 2 4 1023.9 - 0.0
21/01:00pm 14.6 13.0 7.9 64 3.3 S 6 9 3 5 1024.3 1024.4 0.0
21/12:30pm 14.9 12.9 7.2 60 3.8 S 7 9 4 5 1024.6 - 0.0
21/12:00pm 14.9 13.1 7.2 60 3.8 S 6 9 3 5 1025.3 1025.4 0.0
21/11:30am 14.7 13.0 7.5 62 3.6 SSW 6 7 3 4 1025.7 - 0.0
21/11:00am 14.0 12.1 6.8 62 3.5 SSW 6 9 3 5 1026.2 1026.2 0.0
21/10:30am 13.8 11.7 6.7 62 3.4 SW 7 9 4 5 1026.4 - 0.0
21/10:00am 13.2 11.3 6.5 64 3.2 SW 6 9 3 5 1026.6 1026.6 0.0
21/09:30am 12.6 10.5 6.0 64 3.1 SW 6 9 3 5 1026.7 - 0.0
21/09:00am 12.2 10.6 6.3 67 2.8 WSW 4 7 2 4 1026.7 1026.7 0.0
21/08:30am 11.7 9.7 6.2 69 2.6 WSW 6 9 3 5 1026.6 - 0.0
21/08:00am 9.1 6.8 5.7 79 1.5 W 7 9 4 5 1026.6 1026.6 0.0
21/07:30am 8.2 5.4 5.0 80 1.4 W 9 11 5 6 1026.6 - 0.0
21/07:00am 8.0 5.5 4.6 79 1.5 WSW 7 9 4 5 1026.3 1026.3 0.0
21/06:30am 8.1 5.6 4.5 78 1.6 WSW 7 9 4 5 1026.1 - 0.0
21/06:00am 8.3 5.8 4.5 77 1.7 W 7 9 4 5 1026.0 1026.0 0.0
21/05:30am 8.6 5.7 4.6 76 1.8 W 9 11 5 6 1026.0 - 0.0
21/05:00am 8.8 6.0 5.0 77 1.7 W 9 11 5 6 1025.7 1025.8 0.0
21/04:30am 8.5 5.6 4.5 76 1.8 W 9 11 5 6 1025.5 - 0.0
21/04:00am 8.7 5.8 4.9 77 1.7 W 9 13 5 7 1025.5 1025.6 0.0
21/03:30am 8.5 5.6 4.5 76 1.8 WSW 9 13 5 7 1025.5 - 0.0
21/03:00am 8.5 5.6 4.5 76 1.8 W 9 11 5 6 1025.6 1025.7 0.0
21/02:30am 8.4 5.4 4.2 75 1.8 WSW 9 11 5 6 1025.9 - 0.0
21/02:00am 8.8 5.9 4.4 74 1.9 W 9 11 5 6 1025.9 1025.9 0.0
21/01:30am 9.1 6.2 4.7 74 2.0 W 9 11 5 6 1026.0 - 0.0
21/01:00am 9.2 6.3 4.8 74 2.0 W 9 13 5 7 1026.0 1026.0 0.0
21/12:30am 9.2 6.3 4.8 74 2.0 W 9 11 5 6 1026.1 - 0.0
21/12:00am 9.3 6.4 4.7 73 2.0 W 9 11 5 6 1026.2 1026.2 0.0
 
Date/Time
EST
Tmp

°C
App
Tmp
°C
Dew
Point
°C
Rel
Hum
%
Delta-T

°C
Wind Press
QNH
hPa
Press
MSL
hPa
Rain
since
9 am
mm
Dir
 
Spd
km/h
Gust
km/h
Spd
kts
Gust
kts
20/11:30pm 9.5 7.0 4.9 73 2.1 W 7 11 4 6 1026.5 - 0.0
20/11:00pm 9.9 7.5 5.1 72 2.2 W 7 11 4 6 1026.5 1026.5 0.0
20/10:30pm 9.6 7.1 5.0 73 2.1 W 7 11 4 6 1026.5 - 0.0
20/10:00pm 9.4 7.0 5.2 75 1.9 W 7 13 4 7 1026.6 1026.6 0.0
20/09:30pm 9.3 6.1 5.3 76 1.8 W 11 15 6 8 1026.6 - 0.0
20/09:00pm 9.4 6.6 5.2 75 1.9 W 9 11 5 6 1026.5 1026.5 0.0
20/08:30pm 9.4 6.6 5.0 74 2.0 W 9 13 5 7 1026.4 - 0.0

Latest Capital City Observations: Canberra | Sydney | Melbourne | Brisbane | Adelaide | Perth | Hobart | Darwin

Other Formats:

Comma delimited format used in spreadsheet applications
http://www.bom.gov.au/fwo/IDN60903/IDN60903.94938.axf

JavaScript Object Notation format (JSON) in row-major order
http://www.bom.gov.au/fwo/IDN60903/IDN60903.94938.json